createdAt,value
2023-04-24T00:02:08.345Z,11.43
2023-04-24T00:04:36.391Z,11.36
2023-04-24T00:07:04.353Z,11.31
2023-04-24T00:09:31.925Z,11.27
2023-04-24T00:11:59.529Z,11.23
2023-04-24T00:14:27.530Z,11.21
2023-04-24T00:16:55.176Z,11.21
2023-04-24T00:19:23.528Z,11.21
2023-04-24T00:21:51.796Z,11.20
2023-04-24T00:24:19.403Z,11.20
2023-04-24T00:26:47.069Z,11.18
2023-04-24T00:29:14.984Z,11.16
2023-04-24T00:31:42.643Z,11.14
2023-04-24T00:34:10.286Z,11.14
2023-04-24T00:36:37.836Z,11.14
2023-04-24T00:39:06.080Z,11.19
2023-04-24T00:41:33.751Z,11.23
2023-04-24T00:44:01.325Z,11.25
2023-04-24T00:46:29.004Z,11.20
2023-04-24T00:48:56.728Z,11.17
2023-04-24T00:51:25.639Z,11.15
2023-04-24T00:53:53.772Z,11.12
2023-04-24T00:56:21.479Z,11.09
2023-04-24T00:58:49.083Z,11.09
2023-04-24T01:01:16.624Z,11.10
2023-04-24T01:03:44.787Z,11.15
2023-04-24T01:06:12.562Z,11.21
2023-04-24T01:08:40.105Z,11.26
2023-04-24T01:11:08.015Z,11.29
2023-04-24T01:13:35.591Z,11.34
2023-04-24T01:16:03.537Z,11.36
2023-04-24T01:18:31.149Z,11.38
2023-04-24T01:20:58.807Z,11.37
2023-04-24T01:23:26.428Z,11.35
2023-04-24T01:25:54.044Z,11.31
2023-04-24T01:28:21.956Z,11.28
2023-04-24T01:30:49.539Z,11.24
2023-04-24T01:33:17.432Z,11.20
2023-04-24T01:35:44.971Z,11.23
2023-04-24T01:38:12.541Z,11.24
2023-04-24T01:40:40.708Z,11.24
2023-04-24T01:43:08.333Z,11.26
2023-04-24T01:45:35.879Z,11.30
2023-04-24T01:48:03.576Z,11.35
2023-04-24T01:50:31.540Z,11.39
2023-04-24T01:52:59.451Z,11.41
2023-04-24T01:55:27.355Z,11.45
2023-04-24T01:57:54.923Z,11.48
2023-04-24T02:00:22.491Z,11.50
2023-04-24T02:02:50.376Z,11.51
2023-04-24T02:05:18.436Z,11.53
2023-04-24T02:07:45.991Z,11.55
2023-04-24T02:10:13.654Z,11.55
2023-04-24T02:12:41.292Z,11.57
2023-04-24T02:15:08.862Z,11.58
2023-04-24T02:17:38.308Z,11.60
2023-04-24T02:20:05.912Z,11.62
2023-04-24T02:22:33.461Z,11.63
2023-04-24T02:25:01.294Z,11.64
2023-04-24T02:27:28.836Z,11.64
2023-04-24T02:29:56.408Z,11.58
2023-04-24T02:32:24.017Z,11.46
2023-04-24T02:34:51.612Z,11.39
2023-04-24T02:37:19.116Z,11.32
2023-04-24T02:39:46.997Z,11.19
2023-04-24T02:42:14.850Z,11.02
2023-04-24T02:44:42.398Z,10.90
2023-04-24T02:47:09.984Z,10.87
2023-04-24T02:49:37.571Z,10.90
2023-04-24T02:52:05.098Z,10.91
2023-04-24T02:54:33.033Z,10.92
2023-04-24T02:57:02.217Z,10.90
2023-04-24T02:59:30.031Z,10.88
2023-04-24T03:01:59.093Z,10.84
2023-04-24T03:04:27.351Z,10.80
2023-04-24T03:06:56.039Z,10.77
2023-04-24T03:09:23.632Z,10.76
2023-04-24T03:11:51.234Z,10.75
2023-04-24T03:14:18.808Z,10.73
2023-04-24T03:16:46.396Z,10.70
2023-04-24T03:19:14.626Z,10.66
2023-04-24T03:21:42.172Z,10.60
2023-04-24T03:24:09.784Z,10.56
2023-04-24T03:26:37.337Z,10.53
2023-04-24T03:29:04.900Z,10.49
2023-04-24T03:31:32.851Z,10.46
2023-04-24T03:34:01.668Z,10.43
2023-04-24T03:36:29.258Z,10.40
2023-04-24T03:38:56.911Z,10.40
2023-04-24T03:41:24.896Z,10.41
2023-04-24T03:43:52.863Z,10.39
2023-04-24T03:46:20.775Z,10.39
2023-04-24T03:48:48.400Z,10.37
2023-04-24T03:51:15.965Z,10.35
2023-04-24T03:53:43.577Z,10.34
2023-04-24T03:56:11.685Z,10.33
2023-04-24T03:58:39.303Z,10.33
2023-04-24T04:01:06.931Z,10.32
2023-04-24T04:03:34.598Z,10.31
2023-04-24T04:06:02.244Z,10.32
2023-04-24T04:08:31.192Z,10.33
2023-04-24T04:10:58.790Z,10.32
2023-04-24T04:13:26.348Z,10.32
2023-04-24T04:15:53.978Z,10.32
2023-04-24T04:18:21.632Z,10.32
2023-04-24T04:20:49.608Z,10.32
2023-04-24T04:23:17.227Z,10.32
2023-04-24T04:25:44.760Z,10.32
2023-04-24T04:28:12.528Z,10.33
2023-04-24T04:30:41.265Z,10.30
2023-04-24T04:33:09.676Z,10.26
2023-04-24T04:35:37.502Z,10.20
2023-04-24T04:38:05.814Z,10.15
2023-04-24T04:40:33.616Z,10.11
2023-04-24T04:43:01.188Z,10.07
2023-04-24T04:45:29.641Z,10.06
2023-04-24T04:47:57.853Z,10.06
2023-04-24T04:50:25.457Z,10.09
2023-04-24T04:52:53.126Z,10.13
2023-04-24T04:55:20.989Z,10.20
2023-04-24T04:57:48.904Z,10.26
2023-04-24T05:00:16.848Z,10.31
2023-04-24T05:02:44.633Z,10.33
2023-04-24T05:05:12.386Z,10.34
2023-04-24T05:07:40.212Z,10.36
2023-04-24T05:10:08.524Z,10.35
2023-04-24T05:12:36.214Z,10.33
2023-04-24T05:15:04.339Z,10.34
2023-04-24T05:17:31.954Z,10.32
2023-04-24T05:19:59.618Z,10.31
2023-04-24T05:22:27.772Z,10.30
2023-04-24T05:24:55.467Z,10.30
2023-04-24T05:27:23.048Z,10.30
2023-04-24T05:29:50.904Z,10.31
2023-04-24T05:32:18.518Z,10.29
2023-04-24T05:34:46.585Z,10.25
2023-04-24T05:37:14.523Z,10.24
2023-04-24T05:39:42.874Z,10.25
2023-04-24T05:42:10.650Z,10.29
2023-04-24T05:44:38.307Z,10.34
2023-04-24T05:47:06.571Z,10.34
2023-04-24T05:49:34.196Z,10.33
2023-04-24T05:52:01.924Z,10.35
2023-04-24T05:54:29.566Z,10.35
2023-04-24T05:56:57.151Z,10.32
2023-04-24T05:59:26.135Z,10.29
2023-04-24T06:01:53.806Z,10.28
2023-04-24T06:04:22.450Z,10.26
2023-04-24T06:06:52.032Z,10.24
2023-04-24T06:09:20.208Z,10.22
2023-04-24T06:11:48.509Z,10.12
2023-04-24T06:14:16.146Z,10.05
2023-04-24T06:16:43.992Z,10.01
2023-04-24T06:19:11.792Z,10.01
2023-04-24T06:21:39.557Z,10.05
2023-04-24T06:24:07.521Z,10.06
2023-04-24T06:26:35.187Z,10.06
2023-04-24T06:29:03.001Z,10.07
2023-04-24T06:31:31.023Z,10.08
2023-04-24T06:33:58.776Z,10.10
2023-04-24T06:36:26.799Z,10.15
2023-04-24T06:38:54.496Z,10.22
2023-04-24T06:41:22.450Z,10.24
2023-04-24T06:43:50.155Z,10.25
2023-04-24T06:46:17.904Z,10.27
2023-04-24T06:48:46.111Z,10.33
2023-04-24T06:51:13.837Z,10.38
2023-04-24T06:53:41.441Z,10.38
2023-04-24T06:56:09.231Z,10.36
2023-04-24T06:58:37.003Z,10.31
2023-04-24T07:01:05.047Z,10.31
2023-04-24T07:03:33.120Z,10.30
2023-04-24T07:06:01.613Z,10.29
2023-04-24T07:08:29.378Z,10.26
2023-04-24T07:10:57.795Z,10.17
2023-04-24T07:13:26.134Z,10.06
2023-04-24T07:15:55.239Z,10.02
2023-04-24T07:18:22.870Z,10.00
2023-04-24T07:20:51.399Z,9.90
2023-04-24T07:23:19.083Z,9.79
2023-04-24T07:25:48.406Z,9.74
2023-04-24T07:28:16.176Z,9.76
2023-04-24T07:30:43.797Z,9.80
2023-04-24T07:33:14.295Z,9.79
2023-04-24T07:35:42.361Z,9.90
2023-04-24T07:38:10.393Z,10.05
2023-04-24T07:40:38.080Z,10.16
2023-04-24T07:43:06.075Z,10.28
2023-04-24T07:45:37.264Z,10.28
2023-04-24T07:48:05.473Z,10.17
2023-04-24T07:50:34.249Z,10.06
2023-04-24T07:53:02.054Z,10.11
2023-04-24T07:55:29.709Z,10.21
2023-04-24T07:57:57.489Z,10.25
2023-04-24T08:00:25.230Z,10.25
2023-04-24T08:02:53.655Z,10.21
2023-04-24T08:05:21.827Z,10.10
2023-04-24T08:07:51.560Z,9.92
2023-04-24T08:10:21.163Z,9.77
2023-04-24T08:12:49.149Z,9.64
2023-04-24T08:15:17.129Z,9.62
2023-04-24T08:17:44.918Z,9.68
2023-04-24T08:20:14.942Z,9.79
2023-04-24T08:22:42.691Z,9.89
2023-04-24T08:25:10.438Z,9.89
2023-04-24T08:27:40.568Z,9.89
2023-04-24T08:30:08.295Z,9.89
2023-04-24T08:32:36.428Z,9.90
2023-04-24T08:35:04.368Z,9.96
2023-04-24T08:37:32.182Z,10.00
2023-04-24T08:40:00.693Z,10.00
2023-04-24T08:42:28.625Z,9.94
2023-04-24T08:44:56.486Z,9.80
2023-04-24T08:47:24.262Z,9.69
2023-04-24T08:49:52.407Z,9.52
2023-04-24T08:52:21.654Z,9.36
2023-04-24T08:54:49.801Z,9.21
2023-04-24T08:57:17.929Z,9.07
2023-04-24T08:59:45.853Z,8.95
2023-04-24T09:02:13.910Z,8.84
2023-04-24T09:04:42.534Z,8.78
2023-04-24T09:07:10.647Z,8.78
2023-04-24T09:09:38.634Z,8.81
2023-04-24T09:12:06.726Z,8.86
2023-04-24T09:14:34.652Z,8.86
2023-04-24T09:17:05.338Z,8.90
2023-04-24T09:19:33.425Z,8.81
2023-04-24T09:22:01.211Z,8.70
2023-04-24T09:24:29.070Z,8.60
2023-04-24T09:26:57.164Z,8.52
2023-04-24T09:29:25.374Z,8.43
2023-04-24T09:31:53.193Z,8.37
2023-04-24T09:34:21.068Z,8.34
2023-04-24T09:36:49.341Z,8.32
2023-04-24T09:39:17.697Z,8.27
2023-04-24T09:41:46.367Z,8.23
2023-04-24T09:44:14.358Z,8.19
2023-04-24T09:46:42.261Z,8.18
2023-04-24T09:49:10.151Z,8.18
2023-04-24T09:51:38.740Z,8.20
2023-04-24T09:54:07.296Z,8.21
2023-04-24T09:56:35.349Z,8.24
2023-04-24T09:59:03.298Z,8.31
2023-04-24T10:01:31.399Z,8.33
2023-04-24T10:03:59.316Z,8.35
2023-04-24T10:06:27.870Z,8.37
2023-04-24T10:08:57.617Z,8.38
2023-04-24T10:11:25.611Z,8.40
2023-04-24T10:13:53.554Z,8.44
2023-04-24T10:16:21.460Z,8.46
2023-04-24T10:18:50.392Z,8.48
2023-04-24T10:21:18.295Z,8.52
2023-04-24T10:23:47.760Z,8.54
2023-04-24T10:26:18.969Z,8.54
2023-04-24T10:28:46.842Z,8.54
2023-04-24T10:31:15.512Z,8.51
2023-04-24T10:33:43.964Z,8.50
2023-04-24T10:36:11.800Z,8.49
2023-04-24T10:38:39.621Z,8.46
2023-04-24T10:41:07.675Z,8.42
2023-04-24T10:43:35.930Z,8.34
2023-04-24T10:46:04.489Z,8.32
2023-04-24T10:48:32.517Z,8.28
2023-04-24T10:51:00.267Z,8.28
2023-04-24T10:53:28.172Z,8.28
2023-04-24T10:55:56.408Z,8.25
2023-04-24T10:58:24.090Z,8.30
2023-04-24T11:00:51.920Z,8.32
2023-04-24T11:03:20.137Z,8.33
2023-04-24T11:05:49.104Z,8.40
2023-04-24T11:08:18.804Z,8.43
2023-04-24T11:10:46.870Z,8.46
2023-04-24T11:13:14.889Z,8.46
2023-04-24T11:15:42.804Z,8.44
2023-04-24T11:18:10.813Z,8.47
2023-04-24T11:20:39.561Z,8.56
2023-04-24T11:23:07.877Z,8.62
2023-04-24T11:25:35.638Z,8.65
2023-04-24T11:28:03.529Z,8.68
2023-04-24T11:30:31.586Z,8.68
2023-04-24T11:32:59.949Z,8.65
2023-04-24T11:35:29.870Z,8.67
2023-04-24T11:40:28.328Z,8.76
2023-04-24T11:42:56.789Z,8.83
2023-04-24T11:45:24.819Z,8.93
2023-04-24T11:47:52.840Z,8.97
2023-04-24T11:50:20.646Z,8.97
2023-04-24T11:52:48.478Z,9.00
2023-04-24T11:55:16.469Z,9.04
2023-04-24T11:57:46.230Z,9.10
2023-04-24T12:00:14.367Z,9.14
2023-04-24T12:02:42.493Z,9.21
2023-04-24T12:05:10.690Z,9.27
2023-04-24T12:07:38.703Z,9.30
2023-04-24T12:10:07.581Z,9.32
2023-04-24T12:12:35.413Z,9.29
2023-04-24T12:15:03.588Z,9.25
2023-04-24T12:17:31.507Z,9.23
2023-04-24T12:19:59.389Z,9.21
2023-04-24T12:22:28.275Z,9.27
2023-04-24T12:24:56.287Z,9.28
2023-04-24T12:27:24.070Z,9.28
2023-04-24T12:29:51.889Z,9.31
2023-04-24T12:32:19.771Z,9.38
2023-04-24T12:34:47.721Z,9.48
2023-04-24T12:37:15.872Z,9.53
2023-04-24T12:39:43.575Z,9.55
2023-04-24T12:42:11.361Z,9.55
2023-04-24T12:44:39.164Z,9.61
2023-04-24T12:47:07.181Z,9.71
2023-04-24T12:49:34.980Z,9.86
2023-04-24T12:52:02.897Z,10.06
2023-04-24T12:54:30.857Z,10.41
2023-04-24T12:56:58.595Z,10.86
2023-04-24T12:59:27.673Z,11.17
2023-04-24T13:01:55.699Z,11.54
2023-04-24T13:04:23.632Z,11.67
2023-04-24T13:06:51.589Z,11.60
2023-04-24T13:09:19.503Z,11.46
2023-04-24T13:11:47.390Z,11.34
2023-04-24T13:14:15.279Z,11.25
2023-04-24T13:16:43.211Z,11.18
2023-04-24T13:19:11.572Z,11.06
2023-04-24T13:21:39.404Z,10.94
2023-04-24T13:24:09.462Z,10.78
2023-04-24T13:26:37.477Z,10.63
2023-04-24T13:29:05.561Z,10.58
2023-04-24T13:31:33.489Z,10.63
2023-04-24T13:34:01.568Z,10.70
2023-04-24T13:36:29.854Z,10.81
2023-04-24T13:38:57.767Z,11.00
2023-04-24T13:41:25.909Z,11.15
2023-04-24T13:43:53.747Z,11.27
2023-04-24T13:46:21.629Z,11.36
2023-04-24T13:48:50.269Z,11.44
2023-04-24T13:51:18.186Z,11.56
2023-04-24T13:53:46.224Z,11.67
2023-04-24T13:56:15.196Z,11.72
2023-04-24T13:58:43.089Z,11.74
2023-04-24T14:01:11.679Z,11.70
2023-04-24T14:03:40.195Z,11.60
2023-04-24T14:06:08.654Z,11.45
2023-04-24T14:08:36.680Z,11.31
2023-04-24T14:11:04.680Z,11.16
2023-04-24T14:13:33.576Z,11.06
2023-04-24T14:16:01.743Z,10.99
2023-04-24T14:18:29.937Z,10.95
2023-04-24T14:20:57.869Z,10.89
2023-04-24T14:23:25.727Z,10.88
2023-04-24T14:25:55.366Z,10.87
2023-04-24T14:28:23.370Z,10.92
2023-04-24T14:30:51.389Z,10.98
2023-04-24T14:33:19.255Z,11.00
2023-04-24T14:35:47.145Z,11.04
2023-04-24T14:38:16.033Z,11.06
2023-04-24T14:43:14.637Z,11.26
2023-04-24T14:45:42.684Z,11.41
2023-04-24T14:48:12.476Z,11.61
2023-04-24T14:50:41.239Z,11.76
2023-04-24T14:53:09.253Z,11.91
2023-04-24T14:55:37.487Z,12.00
2023-04-24T14:58:05.341Z,12.06
2023-04-24T15:00:33.305Z,12.08
2023-04-24T15:03:01.925Z,12.05
2023-04-24T15:05:30.464Z,12.02
2023-04-24T15:07:58.555Z,11.95
2023-04-24T15:10:26.820Z,11.85
2023-04-24T15:12:54.659Z,11.77
2023-04-24T15:15:23.455Z,11.69
2023-04-24T15:17:51.276Z,11.58
2023-04-24T15:20:19.127Z,11.49
2023-04-24T15:22:46.917Z,11.39
2023-04-24T15:25:14.759Z,11.33
2023-04-24T15:27:43.337Z,11.30
2023-04-24T15:30:11.257Z,11.27
2023-04-24T15:32:39.600Z,11.21
2023-04-24T15:35:09.728Z,11.13
2023-04-24T15:37:38.314Z,11.04
2023-04-24T15:40:08.929Z,10.92
2023-04-24T15:42:36.833Z,10.80
2023-04-24T15:45:04.852Z,10.70
2023-04-24T15:47:32.849Z,10.61
2023-04-24T15:50:00.880Z,10.50
2023-04-24T15:52:28.913Z,10.36
2023-04-24T15:54:57.263Z,10.24
2023-04-24T15:57:25.139Z,10.25
2023-04-24T15:59:53.036Z,10.40
2023-04-24T16:02:21.120Z,11.40
2023-04-24T16:04:50.217Z,12.23
2023-04-24T16:07:18.753Z,12.35
2023-04-24T16:09:46.587Z,12.08
2023-04-24T16:12:14.967Z,12.43
2023-04-24T16:14:42.967Z,13.47
2023-04-24T16:17:12.618Z,13.77
2023-04-24T16:19:40.540Z,13.67
2023-04-24T16:22:08.399Z,13.37
2023-04-24T16:24:36.786Z,13.07
2023-04-24T16:27:04.737Z,12.82
2023-04-24T16:29:33.168Z,12.59
2023-04-24T16:32:00.919Z,12.44
2023-04-24T16:34:28.729Z,12.39
2023-04-24T16:36:56.618Z,12.44
2023-04-24T16:39:24.865Z,12.46
2023-04-24T16:41:56.610Z,12.39
2023-04-24T16:44:25.754Z,12.18
2023-04-24T16:46:53.599Z,11.93
2023-04-24T16:49:21.410Z,11.77
2023-04-24T16:51:49.251Z,11.64
2023-04-24T16:54:17.343Z,11.58
2023-04-24T16:56:45.143Z,11.57
2023-04-24T16:59:13.078Z,11.63
2023-04-24T17:01:41.142Z,11.70
2023-04-24T17:04:08.984Z,11.77
2023-04-24T17:06:37.709Z,11.69
2023-04-24T17:09:05.793Z,11.55
2023-04-24T17:11:33.493Z,11.42
2023-04-24T17:14:01.343Z,11.33
2023-04-24T17:16:29.348Z,11.23
2023-04-24T17:18:57.365Z,11.16
2023-04-24T17:21:25.256Z,11.09
2023-04-24T17:23:53.157Z,11.02
2023-04-24T17:26:21.067Z,10.96
2023-04-24T17:28:49.447Z,10.92
2023-04-24T17:31:18.267Z,10.87
2023-04-24T17:33:46.081Z,10.81
2023-04-24T17:36:13.872Z,10.77
2023-04-24T17:38:41.683Z,10.72
2023-04-24T17:41:09.597Z,10.68
2023-04-24T17:43:38.128Z,10.63
2023-04-24T17:46:07.684Z,10.58
2023-04-24T17:48:35.688Z,10.53
2023-04-24T17:51:03.620Z,10.49
2023-04-24T17:53:31.360Z,10.43
2023-04-24T17:56:02.488Z,10.38
2023-04-24T17:58:30.444Z,10.31
2023-04-24T18:00:58.370Z,10.23
2023-04-24T18:03:26.268Z,10.18
2023-04-24T18:05:54.420Z,10.11
2023-04-24T18:08:24.507Z,10.07
2023-04-24T18:10:52.310Z,10.04
2023-04-24T18:13:20.138Z,9.99
2023-04-24T18:15:48.097Z,9.95
2023-04-24T18:18:17.971Z,9.90
2023-04-24T18:20:46.539Z,9.85
2023-04-24T18:23:14.289Z,9.79
2023-04-24T18:25:42.126Z,9.77
2023-04-24T18:28:10.158Z,9.76
2023-04-24T18:30:38.233Z,9.76
2023-04-24T18:33:06.850Z,9.72
2023-04-24T18:35:34.734Z,9.71
2023-04-24T18:38:02.819Z,9.68
2023-04-24T18:40:30.583Z,9.66
2023-04-24T18:42:58.479Z,9.64
2023-04-24T18:45:26.682Z,9.61
2023-04-24T18:47:54.650Z,9.57
2023-04-24T18:50:22.574Z,9.52
2023-04-24T18:52:50.534Z,9.48
2023-04-24T18:55:18.415Z,9.44
2023-04-24T18:57:46.601Z,9.40
2023-04-24T19:00:14.491Z,9.33
2023-04-24T19:02:42.438Z,9.23
2023-04-24T19:05:10.807Z,9.13
2023-04-24T19:07:38.614Z,9.06
2023-04-24T19:10:07.168Z,8.98
2023-04-24T19:12:35.254Z,8.89
2023-04-24T19:15:04.644Z,8.85
2023-04-24T19:17:32.548Z,8.79
2023-04-24T19:20:00.542Z,8.73
2023-04-24T19:22:29.259Z,8.68
2023-04-24T19:24:58.713Z,8.62
2023-04-24T19:27:26.663Z,8.58
2023-04-24T19:29:54.576Z,8.55
2023-04-24T19:32:22.682Z,8.50
2023-04-24T19:34:51.603Z,8.46
2023-04-24T19:37:19.796Z,8.40
2023-04-24T19:39:47.597Z,8.34
2023-04-24T19:42:15.550Z,8.30
2023-04-24T19:44:43.482Z,8.26
2023-04-24T19:47:11.788Z,8.22
2023-04-24T19:49:39.720Z,8.19
2023-04-24T19:52:07.566Z,8.17
2023-04-24T19:54:35.374Z,8.14
2023-04-24T19:57:04.109Z,8.13
2023-04-24T19:59:34.169Z,8.11
2023-04-24T20:02:02.028Z,8.08
2023-04-24T20:04:29.959Z,8.06
2023-04-24T20:06:58.037Z,8.04
2023-04-24T20:09:25.868Z,8.01
2023-04-24T20:11:55.086Z,7.97
2023-04-24T20:14:22.869Z,7.95
2023-04-24T20:16:51.448Z,7.90
2023-04-24T20:19:19.464Z,7.88
2023-04-24T20:21:47.339Z,7.85
2023-04-24T20:24:17.021Z,7.84
2023-04-24T20:26:44.825Z,7.81
2023-04-24T20:29:14.081Z,7.80
2023-04-24T20:31:41.953Z,7.78
2023-04-24T20:34:10.053Z,7.76
2023-04-24T20:36:39.620Z,7.74
2023-04-24T20:39:08.366Z,7.73
2023-04-24T20:41:37.071Z,7.74
2023-04-24T20:44:04.964Z,7.79
2023-04-24T20:46:32.773Z,7.83
2023-04-24T20:49:01.093Z,7.85
2023-04-24T20:51:28.910Z,7.87
2023-04-24T20:53:56.752Z,7.90
2023-04-24T20:56:26.091Z,7.92
2023-04-24T20:58:56.757Z,7.95
2023-04-24T21:01:26.102Z,7.98
2023-04-24T21:03:54.607Z,8.04
2023-04-24T21:06:22.799Z,8.10
2023-04-24T21:08:50.778Z,8.14
2023-04-24T21:11:18.713Z,8.14
2023-04-24T21:13:47.542Z,8.11
2023-04-24T21:16:15.451Z,8.06
2023-04-24T21:18:43.435Z,8.02
2023-04-24T21:21:11.149Z,7.99
2023-04-24T21:23:39.244Z,7.99
2023-04-24T21:26:08.386Z,8.02
2023-04-24T21:28:36.006Z,8.01
2023-04-24T21:31:03.815Z,7.97
2023-04-24T21:33:31.677Z,7.91
2023-04-24T21:35:59.308Z,7.87
2023-04-24T21:38:27.583Z,7.82
2023-04-24T21:40:55.388Z,7.77
2023-04-24T21:43:27.970Z,7.73
2023-04-24T21:46:05.135Z,7.67
2023-04-24T21:48:33.356Z,7.60
2023-04-24T21:51:01.026Z,7.55
2023-04-24T21:53:29.704Z,7.51
2023-04-24T21:55:57.354Z,7.47
2023-04-24T21:58:25.027Z,7.44
2023-04-24T22:00:53.071Z,7.41
2023-04-24T22:03:20.952Z,7.39
2023-04-24T22:05:48.814Z,7.37
2023-04-24T22:08:16.861Z,7.34
2023-04-24T22:10:44.522Z,7.31
2023-04-24T22:13:12.832Z,7.27
2023-04-24T22:15:40.582Z,7.23
2023-04-24T22:18:08.403Z,7.21
2023-04-24T22:20:36.137Z,7.17
2023-04-24T22:23:04.096Z,7.11
2023-04-24T22:25:32.182Z,7.09
2023-04-24T22:27:59.826Z,7.04
2023-04-24T22:30:27.786Z,7.00
2023-04-24T22:32:55.509Z,6.98
2023-04-24T22:35:23.143Z,6.96
2023-04-24T22:37:51.285Z,6.96
2023-04-24T22:40:18.939Z,6.98
2023-04-24T22:42:46.761Z,7.03
2023-04-24T22:45:15.736Z,7.07
2023-04-24T22:47:43.430Z,7.10
2023-04-24T22:50:12.450Z,7.12
2023-04-24T22:52:41.248Z,7.14
2023-04-24T22:55:08.924Z,7.17
2023-04-24T22:57:36.563Z,7.20
2023-04-24T23:00:06.779Z,7.22
2023-04-24T23:02:35.256Z,7.22
2023-04-24T23:05:03.094Z,7.17
2023-04-24T23:07:30.719Z,7.12
2023-04-24T23:09:59.641Z,7.06
2023-04-24T23:12:27.248Z,7.05
2023-04-24T23:14:55.852Z,7.01
2023-04-24T23:17:23.478Z,7.00
2023-04-24T23:19:51.138Z,6.98
2023-04-24T23:22:18.802Z,6.96
2023-04-24T23:24:46.428Z,6.95
2023-04-24T23:27:13.997Z,6.94
2023-04-24T23:29:41.629Z,6.93
2023-04-24T23:32:09.277Z,6.89
2023-04-24T23:34:39.416Z,6.85
2023-04-24T23:37:07.399Z,6.80
2023-04-24T23:39:35.303Z,6.75
2023-04-24T23:42:04.429Z,6.72
2023-04-24T23:44:32.035Z,6.69
2023-04-24T23:46:59.878Z,6.67
2023-04-24T23:49:27.477Z,6.63
2023-04-24T23:51:56.218Z,6.63
2023-04-24T23:54:23.811Z,6.63
2023-04-24T23:56:51.407Z,6.62
2023-04-24T23:59:20.832Z,6.61
